sensor_id;sensor_type;location;lat;lon;timestamp;P1;durP1;ratioP1;P2;durP2;ratioP2
53903;SDS011;39812;52.430;16.936;2022-12-29T00:01:27;12.32;;;5.35;;
53903;SDS011;39812;52.430;16.936;2022-12-29T00:03:53;9.68;;;5.15;;
53903;SDS011;39812;52.430;16.936;2022-12-29T00:06:19;12.40;;;5.53;;
53903;SDS011;39812;52.430;16.936;2022-12-29T00:08:44;9.68;;;5.45;;
53903;SDS011;39812;52.430;16.936;2022-12-29T00:13:41;11.60;;;5.55;;
53903;SDS011;39812;52.430;16.936;2022-12-29T00:16:26;13.38;;;5.25;;
53903;SDS011;39812;52.430;16.936;2022-12-29T00:18:53;11.48;;;5.53;;
53903;SDS011;39812;52.430;16.936;2022-12-29T00:21:20;13.27;;;5.05;;
53903;SDS011;39812;52.430;16.936;2022-12-29T00:24:05;10.30;;;5.47;;
53903;SDS011;39812;52.430;16.936;2022-12-29T00:26:55;9.38;;;4.18;;
53903;SDS011;39812;52.430;16.936;2022-12-29T00:29:46;10.32;;;4.38;;
53903;SDS011;39812;52.430;16.936;2022-12-29T00:35:22;6.70;;;3.85;;
53903;SDS011;39812;52.430;16.936;2022-12-29T00:37:47;8.20;;;3.78;;
53903;SDS011;39812;52.430;16.936;2022-12-29T00:40:32;13.23;;;3.63;;
53903;SDS011;39812;52.430;16.936;2022-12-29T00:43:16;8.10;;;4.32;;
53903;SDS011;39812;52.430;16.936;2022-12-29T00:46:00;8.32;;;4.20;;
53903;SDS011;39812;52.430;16.936;2022-12-29T00:48:26;6.85;;;3.58;;
53903;SDS011;39812;52.430;16.936;2022-12-29T00:51:10;9.13;;;4.37;;
53903;SDS011;39812;52.430;16.936;2022-12-29T00:53:35;7.65;;;3.75;;
53903;SDS011;39812;52.430;16.936;2022-12-29T00:56:01;9.02;;;4.53;;
53903;SDS011;39812;52.430;16.936;2022-12-29T00:58:27;6.85;;;3.80;;
53903;SDS011;39812;52.430;16.936;2022-12-29T01:01:03;6.90;;;3.95;;
53903;SDS011;39812;52.430;16.936;2022-12-29T01:03:31;8.35;;;3.65;;
53903;SDS011;39812;52.430;16.936;2022-12-29T01:06:01;9.20;;;3.22;;
53903;SDS011;39812;52.430;16.936;2022-12-29T01:08:31;9.05;;;3.40;;
53903;SDS011;39812;52.430;16.936;2022-12-29T01:11:00;5.80;;;3.40;;
53903;SDS011;39812;52.430;16.936;2022-12-29T01:13:28;6.85;;;3.67;;
53903;SDS011;39812;52.430;16.936;2022-12-29T01:15:54;7.28;;;4.18;;
53903;SDS011;39812;52.430;16.936;2022-12-29T01:18:20;6.18;;;3.30;;
53903;SDS011;39812;52.430;16.936;2022-12-29T01:20:46;6.03;;;3.15;;
53903;SDS011;39812;52.430;16.936;2022-12-29T01:23:12;7.05;;;3.60;;
53903;SDS011;39812;52.430;16.936;2022-12-29T01:25:38;7.20;;;3.45;;
53903;SDS011;39812;52.430;16.936;2022-12-29T01:28:04;9.68;;;3.33;;
53903;SDS011;39812;52.430;16.936;2022-12-29T01:30:30;6.57;;;3.60;;
53903;SDS011;39812;52.430;16.936;2022-12-29T01:32:57;6.65;;;3.55;;
53903;SDS011;39812;52.430;16.936;2022-12-29T01:35:22;6.00;;;3.75;;
53903;SDS011;39812;52.430;16.936;2022-12-29T01:37:48;7.25;;;4.25;;
53903;SDS011;39812;52.430;16.936;2022-12-29T01:40:14;4.13;;;2.83;;
53903;SDS011;39812;52.430;16.936;2022-12-29T01:42:39;6.80;;;3.78;;
53903;SDS011;39812;52.430;16.936;2022-12-29T01:45:09;8.63;;;4.80;;
53903;SDS011;39812;52.430;16.936;2022-12-29T01:47:46;9.93;;;3.88;;
53903;SDS011;39812;52.430;16.936;2022-12-29T01:50:20;6.20;;;3.35;;
53903;SDS011;39812;52.430;16.936;2022-12-29T01:52:55;8.73;;;4.00;;
53903;SDS011;39812;52.430;16.936;2022-12-29T01:55:31;7.38;;;3.53;;
53903;SDS011;39812;52.430;16.936;2022-12-29T01:58:01;6.47;;;3.88;;
53903;SDS011;39812;52.430;16.936;2022-12-29T02:00:30;7.25;;;3.53;;
53903;SDS011;39812;52.430;16.936;2022-12-29T02:02:56;5.60;;;3.00;;
53903;SDS011;39812;52.430;16.936;2022-12-29T02:06:08;5.57;;;3.35;;
53903;SDS011;39812;52.430;16.936;2022-12-29T02:08:13;5.90;;;3.17;;
53903;SDS011;39812;52.430;16.936;2022-12-29T02:10:39;6.95;;;3.40;;
53903;SDS011;39812;52.430;16.936;2022-12-29T02:13:06;5.63;;;2.83;;
53903;SDS011;39812;52.430;16.936;2022-12-29T02:15:35;5.30;;;2.83;;
53903;SDS011;39812;52.430;16.936;2022-12-29T02:18:38;6.15;;;3.40;;
53903;SDS011;39812;52.430;16.936;2022-12-29T02:29:38;6.35;;;3.33;;
53903;SDS011;39812;52.430;16.936;2022-12-29T02:40:24;5.20;;;2.80;;
53903;SDS011;39812;52.430;16.936;2022-12-29T02:43:22;5.32;;;2.90;;
53903;SDS011;39812;52.430;16.936;2022-12-29T02:45:53;5.50;;;2.63;;
53903;SDS011;39812;52.430;16.936;2022-12-29T02:51:04;7.13;;;3.10;;
53903;SDS011;39812;52.430;16.936;2022-12-29T02:53:35;6.05;;;2.38;;
53903;SDS011;39812;52.430;16.936;2022-12-29T02:56:20;6.32;;;3.55;;
53903;SDS011;39812;52.430;16.936;2022-12-29T02:58:46;5.22;;;3.08;;
53903;SDS011;39812;52.430;16.936;2022-12-29T03:09:14;5.32;;;2.92;;
53903;SDS011;39812;52.430;16.936;2022-12-29T03:11:49;5.53;;;2.92;;
53903;SDS011;39812;52.430;16.936;2022-12-29T03:20:31;5.20;;;2.50;;
53903;SDS011;39812;52.430;16.936;2022-12-29T03:23:06;6.28;;;2.60;;
53903;SDS011;39812;52.430;16.936;2022-12-29T03:25:37;4.63;;;2.35;;
53903;SDS011;39812;52.430;16.936;2022-12-29T03:28:09;5.93;;;2.90;;
53903;SDS011;39812;52.430;16.936;2022-12-29T03:30:43;5.10;;;2.42;;
53903;SDS011;39812;52.430;16.936;2022-12-29T03:33:10;7.05;;;2.90;;
53903;SDS011;39812;52.430;16.936;2022-12-29T03:35:40;5.38;;;2.60;;
53903;SDS011;39812;52.430;16.936;2022-12-29T03:41:03;4.50;;;2.58;;
53903;SDS011;39812;52.430;16.936;2022-12-29T03:43:32;5.40;;;2.70;;
53903;SDS011;39812;52.430;16.936;2022-12-29T03:45:58;4.65;;;2.30;;
53903;SDS011;39812;52.430;16.936;2022-12-29T03:48:24;5.22;;;2.63;;
53903;SDS011;39812;52.430;16.936;2022-12-29T03:50:50;6.68;;;2.45;;
53903;SDS011;39812;52.430;16.936;2022-12-29T03:53:16;4.95;;;2.78;;
53903;SDS011;39812;52.430;16.936;2022-12-29T03:55:42;5.57;;;2.80;;
53903;SDS011;39812;52.430;16.936;2022-12-29T03:58:07;3.72;;;2.45;;
53903;SDS011;39812;52.430;16.936;2022-12-29T04:00:33;5.97;;;2.30;;
53903;SDS011;39812;52.430;16.936;2022-12-29T04:02:59;5.13;;;2.40;;
53903;SDS011;39812;52.430;16.936;2022-12-29T04:05:24;3.80;;;2.30;;
53903;SDS011;39812;52.430;16.936;2022-12-29T04:07:50;4.00;;;2.13;;
53903;SDS011;39812;52.430;16.936;2022-12-29T04:10:16;3.42;;;2.25;;
53903;SDS011;39812;52.430;16.936;2022-12-29T04:12:41;3.45;;;1.85;;
53903;SDS011;39812;52.430;16.936;2022-12-29T04:15:07;3.70;;;2.25;;
53903;SDS011;39812;52.430;16.936;2022-12-29T04:17:34;4.50;;;2.42;;
53903;SDS011;39812;52.430;16.936;2022-12-29T04:20:00;5.82;;;2.15;;
53903;SDS011;39812;52.430;16.936;2022-12-29T04:22:44;4.95;;;2.42;;
53903;SDS011;39812;52.430;16.936;2022-12-29T04:25:10;7.45;;;2.50;;
53903;SDS011;39812;52.430;16.936;2022-12-29T04:27:35;3.45;;;2.20;;
53903;SDS011;39812;52.430;16.936;2022-12-29T04:30:01;3.85;;;2.38;;
53903;SDS011;39812;52.430;16.936;2022-12-29T04:32:27;3.45;;;2.30;;
53903;SDS011;39812;52.430;16.936;2022-12-29T04:34:53;4.00;;;1.90;;
53903;SDS011;39812;52.430;16.936;2022-12-29T04:37:19;5.95;;;2.20;;
53903;SDS011;39812;52.430;16.936;2022-12-29T04:39:44;6.22;;;2.67;;
53903;SDS011;39812;52.430;16.936;2022-12-29T04:42:10;5.03;;;2.63;;
53903;SDS011;39812;52.430;16.936;2022-12-29T04:44:35;3.70;;;2.08;;
53903;SDS011;39812;52.430;16.936;2022-12-29T04:47:01;6.15;;;2.50;;
53903;SDS011;39812;52.430;16.936;2022-12-29T04:49:27;5.05;;;2.20;;
53903;SDS011;39812;52.430;16.936;2022-12-29T04:51:52;4.30;;;1.95;;
53903;SDS011;39812;52.430;16.936;2022-12-29T04:54:18;3.78;;;2.03;;
53903;SDS011;39812;52.430;16.936;2022-12-29T04:56:44;2.60;;;2.10;;
53903;SDS011;39812;52.430;16.936;2022-12-29T04:59:09;3.40;;;2.22;;
53903;SDS011;39812;52.430;16.936;2022-12-29T05:01:35;5.30;;;2.60;;
53903;SDS011;39812;52.430;16.936;2022-12-29T05:04:00;7.45;;;2.30;;
53903;SDS011;39812;52.430;16.936;2022-12-29T05:06:26;3.88;;;2.30;;
53903;SDS011;39812;52.430;16.936;2022-12-29T05:08:52;5.63;;;2.88;;
53903;SDS011;39812;52.430;16.936;2022-12-29T05:11:17;5.63;;;2.20;;
53903;SDS011;39812;52.430;16.936;2022-12-29T05:13:46;6.72;;;2.28;;
53903;SDS011;39812;52.430;16.936;2022-12-29T05:16:12;4.28;;;2.20;;
53903;SDS011;39812;52.430;16.936;2022-12-29T05:18:38;4.28;;;2.13;;
53903;SDS011;39812;52.430;16.936;2022-12-29T05:21:03;3.95;;;2.17;;
53903;SDS011;39812;52.430;16.936;2022-12-29T05:23:29;4.40;;;2.10;;
53903;SDS011;39812;52.430;16.936;2022-12-29T05:25:55;7.07;;;2.30;;
53903;SDS011;39812;52.430;16.936;2022-12-29T05:28:21;3.97;;;2.42;;
53903;SDS011;39812;52.430;16.936;2022-12-29T05:30:50;3.00;;;1.60;;
53903;SDS011;39812;52.430;16.936;2022-12-29T05:33:16;4.63;;;2.00;;
53903;SDS011;39812;52.430;16.936;2022-12-29T05:35:42;4.47;;;1.45;;
53903;SDS011;39812;52.430;16.936;2022-12-29T05:38:08;3.67;;;1.92;;
53903;SDS011;39812;52.430;16.936;2022-12-29T05:40:34;3.72;;;2.10;;
53903;SDS011;39812;52.430;16.936;2022-12-29T05:43:00;3.25;;;1.92;;
53903;SDS011;39812;52.430;16.936;2022-12-29T05:45:26;5.13;;;1.80;;
53903;SDS011;39812;52.430;16.936;2022-12-29T05:47:51;4.55;;;2.38;;
53903;SDS011;39812;52.430;16.936;2022-12-29T05:50:17;2.95;;;1.90;;
53903;SDS011;39812;52.430;16.936;2022-12-29T05:52:43;3.63;;;2.25;;
53903;SDS011;39812;52.430;16.936;2022-12-29T05:55:09;5.50;;;2.42;;
53903;SDS011;39812;52.430;16.936;2022-12-29T05:57:35;4.80;;;2.53;;
53903;SDS011;39812;52.430;16.936;2022-12-29T06:00:00;3.95;;;2.10;;
53903;SDS011;39812;52.430;16.936;2022-12-29T06:02:27;4.43;;;1.90;;
53903;SDS011;39812;52.430;16.936;2022-12-29T06:04:52;3.80;;;1.92;;
53903;SDS011;39812;52.430;16.936;2022-12-29T06:07:18;6.18;;;2.88;;
53903;SDS011;39812;52.430;16.936;2022-12-29T06:09:43;4.72;;;2.10;;
53903;SDS011;39812;52.430;16.936;2022-12-29T06:12:09;7.00;;;2.35;;
53903;SDS011;39812;52.430;16.936;2022-12-29T06:14:35;3.70;;;2.20;;
53903;SDS011;39812;52.430;16.936;2022-12-29T06:17:00;5.00;;;2.03;;
53903;SDS011;39812;52.430;16.936;2022-12-29T06:19:26;5.00;;;2.58;;
53903;SDS011;39812;52.430;16.936;2022-12-29T06:21:52;4.05;;;2.40;;
53903;SDS011;39812;52.430;16.936;2022-12-29T06:24:18;4.07;;;2.10;;
53903;SDS011;39812;52.430;16.936;2022-12-29T06:26:43;4.07;;;2.20;;
53903;SDS011;39812;52.430;16.936;2022-12-29T06:29:09;6.78;;;2.88;;
53903;SDS011;39812;52.430;16.936;2022-12-29T06:31:35;5.13;;;2.50;;
53903;SDS011;39812;52.430;16.936;2022-12-29T06:34:00;4.32;;;1.90;;
53903;SDS011;39812;52.430;16.936;2022-12-29T06:36:27;4.20;;;2.45;;
53903;SDS011;39812;52.430;16.936;2022-12-29T06:38:53;3.10;;;1.80;;
53903;SDS011;39812;52.430;16.936;2022-12-29T06:41:19;6.25;;;2.30;;
53903;SDS011;39812;52.430;16.936;2022-12-29T06:43:45;4.10;;;1.85;;
53903;SDS011;39812;52.430;16.936;2022-12-29T06:46:11;4.63;;;2.20;;
53903;SDS011;39812;52.430;16.936;2022-12-29T06:48:37;4.05;;;2.17;;
53903;SDS011;39812;52.430;16.936;2022-12-29T06:51:02;3.95;;;1.88;;
53903;SDS011;39812;52.430;16.936;2022-12-29T06:53:28;3.40;;;1.70;;
53903;SDS011;39812;52.430;16.936;2022-12-29T06:55:54;4.28;;;2.15;;
53903;SDS011;39812;52.430;16.936;2022-12-29T06:58:21;3.80;;;2.00;;
53903;SDS011;39812;52.430;16.936;2022-12-29T07:00:47;3.53;;;3.03;;
53903;SDS011;39812;52.430;16.936;2022-12-29T07:03:13;4.65;;;2.45;;
53903;SDS011;39812;52.430;16.936;2022-12-29T07:05:38;3.00;;;1.60;;
53903;SDS011;39812;52.430;16.936;2022-12-29T07:08:04;4.38;;;1.75;;
53903;SDS011;39812;52.430;16.936;2022-12-29T07:10:30;6.15;;;2.17;;
53903;SDS011;39812;52.430;16.936;2022-12-29T07:12:56;4.70;;;2.88;;
53903;SDS011;39812;52.430;16.936;2022-12-29T07:15:22;5.43;;;2.03;;
53903;SDS011;39812;52.430;16.936;2022-12-29T07:17:48;4.90;;;2.10;;
53903;SDS011;39812;52.430;16.936;2022-12-29T07:20:14;3.65;;;2.28;;
53903;SDS011;39812;52.430;16.936;2022-12-29T07:22:40;4.47;;;2.15;;
53903;SDS011;39812;52.430;16.936;2022-12-29T07:25:06;4.63;;;2.38;;
53903;SDS011;39812;52.430;16.936;2022-12-29T07:27:32;5.18;;;2.38;;
53903;SDS011;39812;52.430;16.936;2022-12-29T07:29:58;5.13;;;2.00;;
53903;SDS011;39812;52.430;16.936;2022-12-29T07:32:24;3.53;;;2.13;;
53903;SDS011;39812;52.430;16.936;2022-12-29T07:34:49;3.95;;;2.03;;
53903;SDS011;39812;52.430;16.936;2022-12-29T07:37:15;5.82;;;2.38;;
53903;SDS011;39812;52.430;16.936;2022-12-29T07:39:41;5.20;;;1.90;;
53903;SDS011;39812;52.430;16.936;2022-12-29T07:42:07;4.18;;;1.98;;
53903;SDS011;39812;52.430;16.936;2022-12-29T07:44:32;3.88;;;2.15;;
53903;SDS011;39812;52.430;16.936;2022-12-29T07:46:58;4.90;;;2.42;;
53903;SDS011;39812;52.430;16.936;2022-12-29T07:49:23;4.13;;;2.30;;
53903;SDS011;39812;52.430;16.936;2022-12-29T07:51:49;4.55;;;2.75;;
53903;SDS011;39812;52.430;16.936;2022-12-29T07:54:15;4.55;;;2.25;;
53903;SDS011;39812;52.430;16.936;2022-12-29T07:56:43;3.95;;;2.35;;
53903;SDS011;39812;52.430;16.936;2022-12-29T07:59:09;6.13;;;2.97;;
53903;SDS011;39812;52.430;16.936;2022-12-29T08:01:37;5.85;;;2.40;;
53903;SDS011;39812;52.430;16.936;2022-12-29T08:04:03;5.65;;;2.50;;
53903;SDS011;39812;52.430;16.936;2022-12-29T08:06:29;5.60;;;2.60;;
53903;SDS011;39812;52.430;16.936;2022-12-29T08:08:55;6.75;;;3.20;;
53903;SDS011;39812;52.430;16.936;2022-12-29T08:11:22;5.30;;;2.65;;
53903;SDS011;39812;52.430;16.936;2022-12-29T08:13:48;5.35;;;3.20;;
53903;SDS011;39812;52.430;16.936;2022-12-29T08:16:13;6.85;;;3.58;;
53903;SDS011;39812;52.430;16.936;2022-12-29T08:18:39;7.15;;;2.83;;
53903;SDS011;39812;52.430;16.936;2022-12-29T08:21:05;7.63;;;2.80;;
53903;SDS011;39812;52.430;16.936;2022-12-29T08:23:31;8.02;;;3.05;;
53903;SDS011;39812;52.430;16.936;2022-12-29T08:26:00;8.80;;;3.20;;
53903;SDS011;39812;52.430;16.936;2022-12-29T08:28:28;6.88;;;3.67;;
53903;SDS011;39812;52.430;16.936;2022-12-29T08:30:56;7.35;;;3.00;;
53903;SDS011;39812;52.430;16.936;2022-12-29T08:33:22;6.53;;;3.13;;
53903;SDS011;39812;52.430;16.936;2022-12-29T08:35:48;7.95;;;3.35;;
53903;SDS011;39812;52.430;16.936;2022-12-29T08:38:14;10.45;;;3.60;;
53903;SDS011;39812;52.430;16.936;2022-12-29T08:40:40;7.07;;;3.17;;
53903;SDS011;39812;52.430;16.936;2022-12-29T08:43:05;6.95;;;3.10;;
53903;SDS011;39812;52.430;16.936;2022-12-29T08:45:31;9.68;;;4.18;;
53903;SDS011;39812;52.430;16.936;2022-12-29T08:47:57;8.63;;;3.63;;
53903;SDS011;39812;52.430;16.936;2022-12-29T08:50:22;7.72;;;2.83;;
53903;SDS011;39812;52.430;16.936;2022-12-29T08:52:48;6.35;;;3.33;;
53903;SDS011;39812;52.430;16.936;2022-12-29T08:55:14;7.65;;;3.67;;
53903;SDS011;39812;52.430;16.936;2022-12-29T08:57:39;6.18;;;3.50;;
53903;SDS011;39812;52.430;16.936;2022-12-29T09:00:05;10.23;;;3.50;;
53903;SDS011;39812;52.430;16.936;2022-12-29T09:02:31;7.45;;;3.20;;
53903;SDS011;39812;52.430;16.936;2022-12-29T09:04:57;6.65;;;2.85;;
53903;SDS011;39812;52.430;16.936;2022-12-29T09:07:23;8.25;;;3.58;;
53903;SDS011;39812;52.430;16.936;2022-12-29T09:09:49;8.65;;;3.42;;
53903;SDS011;39812;52.430;16.936;2022-12-29T09:12:16;7.00;;;3.65;;
53903;SDS011;39812;52.430;16.936;2022-12-29T09:14:42;7.90;;;3.70;;
53903;SDS011;39812;52.430;16.936;2022-12-29T09:17:09;9.20;;;3.70;;
53903;SDS011;39812;52.430;16.936;2022-12-29T09:19:54;10.60;;;4.05;;
53903;SDS011;39812;52.430;16.936;2022-12-29T09:22:20;9.02;;;3.78;;
53903;SDS011;39812;52.430;16.936;2022-12-29T09:24:46;5.82;;;3.13;;
53903;SDS011;39812;52.430;16.936;2022-12-29T09:27:12;8.65;;;3.97;;
53903;SDS011;39812;52.430;16.936;2022-12-29T09:29:37;9.30;;;4.13;;
53903;SDS011;39812;52.430;16.936;2022-12-29T09:32:03;9.05;;;4.40;;
53903;SDS011;39812;52.430;16.936;2022-12-29T09:34:29;7.13;;;3.70;;
53903;SDS011;39812;52.430;16.936;2022-12-29T09:36:54;9.75;;;4.45;;
53903;SDS011;39812;52.430;16.936;2022-12-29T09:39:21;7.53;;;3.67;;
53903;SDS011;39812;52.430;16.936;2022-12-29T09:47:11;7.72;;;3.35;;
53903;SDS011;39812;52.430;16.936;2022-12-29T09:52:13;8.18;;;3.40;;
53903;SDS011;39812;52.430;16.936;2022-12-29T09:54:53;8.88;;;3.92;;
53903;SDS011;39812;52.430;16.936;2022-12-29T09:57:27;7.57;;;3.45;;
53903;SDS011;39812;52.430;16.936;2022-12-29T10:00:01;6.72;;;3.50;;
53903;SDS011;39812;52.430;16.936;2022-12-29T10:02:40;7.15;;;3.50;;
53903;SDS011;39812;52.430;16.936;2022-12-29T10:05:21;8.45;;;3.85;;
53903;SDS011;39812;52.430;16.936;2022-12-29T10:08:20;6.70;;;3.35;;
53903;SDS011;39812;52.430;16.936;2022-12-29T10:10:59;6.88;;;3.40;;
53903;SDS011;39812;52.430;16.936;2022-12-29T10:16:18;7.47;;;3.53;;
53903;SDS011;39812;52.430;16.936;2022-12-29T10:24:01;8.75;;;3.45;;
53903;SDS011;39812;52.430;16.936;2022-12-29T10:26:35;5.47;;;2.67;;
53903;SDS011;39812;52.430;16.936;2022-12-29T10:29:27;7.18;;;3.30;;
53903;SDS011;39812;52.430;16.936;2022-12-29T10:32:00;7.20;;;3.20;;
53903;SDS011;39812;52.430;16.936;2022-12-29T10:34:29;7.30;;;2.95;;
53903;SDS011;39812;52.430;16.936;2022-12-29T10:37:00;3.53;;;2.20;;
53903;SDS011;39812;52.430;16.936;2022-12-29T10:39:51;4.60;;;3.10;;
53903;SDS011;39812;52.430;16.936;2022-12-29T10:45:06;4.80;;;2.42;;
53903;SDS011;39812;52.430;16.936;2022-12-29T10:47:37;7.15;;;3.03;;
53903;SDS011;39812;52.430;16.936;2022-12-29T10:50:07;4.00;;;2.20;;
53903;SDS011;39812;52.430;16.936;2022-12-29T10:52:37;6.55;;;2.95;;
53903;SDS011;39812;52.430;16.936;2022-12-29T10:55:14;5.85;;;2.70;;
53903;SDS011;39812;52.430;16.936;2022-12-29T10:57:45;4.35;;;2.05;;
53903;SDS011;39812;52.430;16.936;2022-12-29T11:00:21;6.25;;;2.20;;
53903;SDS011;39812;52.430;16.936;2022-12-29T11:05:42;3.88;;;1.88;;
53903;SDS011;39812;52.430;16.936;2022-12-29T11:08:28;5.47;;;2.73;;
53903;SDS011;39812;52.430;16.936;2022-12-29T11:10:59;5.65;;;2.67;;
53903;SDS011;39812;52.430;16.936;2022-12-29T11:13:28;4.15;;;2.10;;
53903;SDS011;39812;52.430;16.936;2022-12-29T11:15:55;5.07;;;2.33;;
53903;SDS011;39812;52.430;16.936;2022-12-29T11:18:36;4.68;;;2.45;;
53903;SDS011;39812;52.430;16.936;2022-12-29T11:21:04;3.60;;;2.17;;
53903;SDS011;39812;52.430;16.936;2022-12-29T11:26:29;5.40;;;2.25;;
53903;SDS011;39812;52.430;16.936;2022-12-29T11:29:39;6.22;;;2.58;;
53903;SDS011;39812;52.430;16.936;2022-12-29T11:31:47;4.53;;;2.30;;
53903;SDS011;39812;52.430;16.936;2022-12-29T11:34:17;5.43;;;2.05;;
53903;SDS011;39812;52.430;16.936;2022-12-29T11:36:44;5.78;;;2.28;;
53903;SDS011;39812;52.430;16.936;2022-12-29T11:39:30;5.97;;;2.53;;
53903;SDS011;39812;52.430;16.936;2022-12-29T11:42:12;3.60;;;2.05;;
53903;SDS011;39812;52.430;16.936;2022-12-29T11:44:45;6.43;;;2.78;;
53903;SDS011;39812;52.430;16.936;2022-12-29T11:50:01;6.47;;;2.65;;
53903;SDS011;39812;52.430;16.936;2022-12-29T11:52:30;4.55;;;2.10;;
53903;SDS011;39812;52.430;16.936;2022-12-29T11:55:00;4.75;;;2.10;;
53903;SDS011;39812;52.430;16.936;2022-12-29T11:57:28;5.72;;;2.42;;
53903;SDS011;39812;52.430;16.936;2022-12-29T11:59:58;8.63;;;2.60;;
53903;SDS011;39812;52.430;16.936;2022-12-29T12:05:14;6.50;;;2.78;;
53903;SDS011;39812;52.430;16.936;2022-12-29T12:07:45;5.88;;;2.75;;
53903;SDS011;39812;52.430;16.936;2022-12-29T12:10:16;9.32;;;2.72;;
53903;SDS011;39812;52.430;16.936;2022-12-29T12:12:53;6.70;;;2.50;;
53903;SDS011;39812;52.430;16.936;2022-12-29T12:15:33;3.47;;;2.30;;
53903;SDS011;39812;52.430;16.936;2022-12-29T12:26:42;6.57;;;2.35;;
53903;SDS011;39812;52.430;16.936;2022-12-29T12:29:34;5.55;;;2.83;;
53903;SDS011;39812;52.430;16.936;2022-12-29T12:35:11;4.00;;;2.20;;
53903;SDS011;39812;52.430;16.936;2022-12-29T12:40:19;8.88;;;2.75;;
53903;SDS011;39812;52.430;16.936;2022-12-29T12:47:54;6.20;;;2.78;;
53903;SDS011;39812;52.430;16.936;2022-12-29T12:50:52;8.30;;;2.42;;
53903;SDS011;39812;52.430;16.936;2022-12-29T13:06:47;5.00;;;1.98;;
53903;SDS011;39812;52.430;16.936;2022-12-29T13:09:29;4.20;;;2.17;;
53903;SDS011;39812;52.430;16.936;2022-12-29T13:17:33;3.17;;;1.60;;
53903;SDS011;39812;52.430;16.936;2022-12-29T13:20:17;3.70;;;1.98;;
53903;SDS011;39812;52.430;16.936;2022-12-29T13:22:56;5.10;;;2.38;;
53903;SDS011;39812;52.430;16.936;2022-12-29T13:28:16;3.13;;;1.90;;
53903;SDS011;39812;52.430;16.936;2022-12-29T13:33:47;3.88;;;1.85;;
53903;SDS011;39812;52.430;16.936;2022-12-29T13:41:31;4.18;;;1.67;;
53903;SDS011;39812;52.430;16.936;2022-12-29T13:44:01;4.77;;;2.07;;
53903;SDS011;39812;52.430;16.936;2022-12-29T13:46:39;5.15;;;1.60;;
53903;SDS011;39812;52.430;16.936;2022-12-29T13:51:48;2.72;;;1.73;;
53903;SDS011;39812;52.430;16.936;2022-12-29T13:59:49;4.72;;;2.42;;
53903;SDS011;39812;52.430;16.936;2022-12-29T14:02:35;5.75;;;2.10;;
53903;SDS011;39812;52.430;16.936;2022-12-29T14:07:45;5.68;;;2.45;;
53903;SDS011;39812;52.430;16.936;2022-12-29T14:13:00;7.03;;;2.72;;
53903;SDS011;39812;52.430;16.936;2022-12-29T14:15:40;7.60;;;2.55;;
53903;SDS011;39812;52.430;16.936;2022-12-29T14:18:17;5.93;;;2.30;;
53903;SDS011;39812;52.430;16.936;2022-12-29T14:20:57;4.38;;;2.40;;
53903;SDS011;39812;52.430;16.936;2022-12-29T14:23:53;8.77;;;3.13;;
53903;SDS011;39812;52.430;16.936;2022-12-29T14:29:00;4.07;;;1.92;;
53903;SDS011;39812;52.430;16.936;2022-12-29T14:32:01;5.07;;;2.40;;
53903;SDS011;39812;52.430;16.936;2022-12-29T14:34:27;5.80;;;2.53;;
53903;SDS011;39812;52.430;16.936;2022-12-29T14:36:55;3.85;;;2.00;;
53903;SDS011;39812;52.430;16.936;2022-12-29T14:39:44;6.13;;;2.78;;
53903;SDS011;39812;52.430;16.936;2022-12-29T14:47:18;9.57;;;2.70;;
53903;SDS011;39812;52.430;16.936;2022-12-29T14:50:03;7.47;;;2.25;;
53903;SDS011;39812;52.430;16.936;2022-12-29T14:52:31;5.70;;;2.83;;
53903;SDS011;39812;52.430;16.936;2022-12-29T15:00:02;6.50;;;2.78;;
53903;SDS011;39812;52.430;16.936;2022-12-29T15:02:33;6.60;;;3.15;;
53903;SDS011;39812;52.430;16.936;2022-12-29T15:05:03;9.35;;;3.72;;
53903;SDS011;39812;52.430;16.936;2022-12-29T15:07:31;9.68;;;3.50;;
53903;SDS011;39812;52.430;16.936;2022-12-29T15:10:11;8.40;;;3.78;;
53903;SDS011;39812;52.430;16.936;2022-12-29T15:12:43;9.05;;;4.07;;
53903;SDS011;39812;52.430;16.936;2022-12-29T15:15:17;7.82;;;3.20;;
53903;SDS011;39812;52.430;16.936;2022-12-29T15:17:47;10.40;;;3.83;;
53903;SDS011;39812;52.430;16.936;2022-12-29T15:20:29;9.88;;;3.80;;
53903;SDS011;39812;52.430;16.936;2022-12-29T15:23:12;7.75;;;2.78;;
53903;SDS011;39812;52.430;16.936;2022-12-29T15:25:54;9.45;;;3.92;;
53903;SDS011;39812;52.430;16.936;2022-12-29T15:28:22;11.48;;;3.35;;
53903;SDS011;39812;52.430;16.936;2022-12-29T15:30:55;8.65;;;3.92;;
53903;SDS011;39812;52.430;16.936;2022-12-29T15:33:27;9.65;;;3.97;;
53903;SDS011;39812;52.430;16.936;2022-12-29T15:35:54;6.93;;;3.47;;
53903;SDS011;39812;52.430;16.936;2022-12-29T15:38:22;6.93;;;3.33;;
53903;SDS011;39812;52.430;16.936;2022-12-29T15:40:56;10.35;;;4.25;;
53903;SDS011;39812;52.430;16.936;2022-12-29T15:46:20;8.77;;;3.53;;
53903;SDS011;39812;52.430;16.936;2022-12-29T15:48:46;8.18;;;3.70;;
53903;SDS011;39812;52.430;16.936;2022-12-29T15:51:17;7.20;;;4.07;;
53903;SDS011;39812;52.430;16.936;2022-12-29T15:53:50;20.77;;;4.18;;
53903;SDS011;39812;52.430;16.936;2022-12-29T15:56:17;9.02;;;3.80;;
53903;SDS011;39812;52.430;16.936;2022-12-29T15:58:44;9.05;;;4.07;;
53903;SDS011;39812;52.430;16.936;2022-12-29T16:01:27;9.90;;;4.00;;
53903;SDS011;39812;52.430;16.936;2022-12-29T16:04:07;9.65;;;4.10;;
53903;SDS011;39812;52.430;16.936;2022-12-29T16:06:37;9.90;;;4.45;;
53903;SDS011;39812;52.430;16.936;2022-12-29T16:09:18;9.60;;;4.40;;
53903;SDS011;39812;52.430;16.936;2022-12-29T16:11:56;6.45;;;4.18;;
53903;SDS011;39812;52.430;16.936;2022-12-29T16:14:27;7.55;;;3.75;;
53903;SDS011;39812;52.430;16.936;2022-12-29T16:16:58;8.45;;;3.25;;
53903;SDS011;39812;52.430;16.936;2022-12-29T16:19:31;9.45;;;4.07;;
53903;SDS011;39812;52.430;16.936;2022-12-29T16:22:00;7.50;;;3.92;;
53903;SDS011;39812;52.430;16.936;2022-12-29T16:24:28;7.47;;;3.67;;
53903;SDS011;39812;52.430;16.936;2022-12-29T16:29:33;6.55;;;2.78;;
53903;SDS011;39812;52.430;16.936;2022-12-29T16:32:00;12.30;;;3.97;;
53903;SDS011;39812;52.430;16.936;2022-12-29T16:34:33;7.03;;;3.72;;
53903;SDS011;39812;52.430;16.936;2022-12-29T16:37:03;9.82;;;3.60;;
53903;SDS011;39812;52.430;16.936;2022-12-29T16:39:34;9.95;;;3.90;;
53903;SDS011;39812;52.430;16.936;2022-12-29T16:42:32;8.85;;;3.40;;
53903;SDS011;39812;52.430;16.936;2022-12-29T16:45:19;9.40;;;4.22;;
53903;SDS011;39812;52.430;16.936;2022-12-29T16:50:43;6.22;;;3.20;;
53903;SDS011;39812;52.430;16.936;2022-12-29T16:53:20;5.45;;;2.55;;
53903;SDS011;39812;52.430;16.936;2022-12-29T16:55:52;5.82;;;3.08;;
53903;SDS011;39812;52.430;16.936;2022-12-29T16:58:19;6.80;;;3.10;;
53903;SDS011;39812;52.430;16.936;2022-12-29T17:00:47;6.53;;;3.30;;
53903;SDS011;39812;52.430;16.936;2022-12-29T17:03:14;8.15;;;3.53;;
53903;SDS011;39812;52.430;16.936;2022-12-29T17:05:40;9.40;;;4.00;;
53903;SDS011;39812;52.430;16.936;2022-12-29T17:08:16;7.97;;;3.83;;
53903;SDS011;39812;52.430;16.936;2022-12-29T17:10:48;9.02;;;3.63;;
53903;SDS011;39812;52.430;16.936;2022-12-29T17:13:38;6.03;;;3.25;;
53903;SDS011;39812;52.430;16.936;2022-12-29T17:16:07;7.72;;;3.35;;
53903;SDS011;39812;52.430;16.936;2022-12-29T17:18:35;7.10;;;3.10;;
53903;SDS011;39812;52.430;16.936;2022-12-29T17:21:02;6.25;;;3.38;;
53903;SDS011;39812;52.430;16.936;2022-12-29T17:23:28;9.25;;;3.58;;
53903;SDS011;39812;52.430;16.936;2022-12-29T17:25:56;7.30;;;3.22;;
53903;SDS011;39812;52.430;16.936;2022-12-29T17:28:26;7.95;;;3.47;;